createdAt,value
2023-01-21T00:01:11.124Z,80.53
2023-01-21T00:03:38.613Z,44.53
2023-01-21T00:06:06.533Z,36.08
2023-01-21T00:08:34.114Z,15.52
2023-01-21T00:11:09.679Z,10.75
2023-01-21T00:13:37.605Z,14.20
2023-01-21T00:16:06.059Z,11.13
2023-01-21T00:18:34.259Z,10.90
2023-01-21T00:21:02.244Z,8.73
2023-01-21T00:23:29.442Z,13.82
2023-01-21T00:26:04.061Z,13.23
2023-01-21T00:28:33.180Z,13.23
2023-01-21T00:31:05.790Z,6.80
2023-01-21T00:33:34.853Z,10.70
2023-01-21T00:36:04.696Z,6.90
2023-01-21T00:38:32.754Z,9.02
2023-01-21T00:41:08.866Z,15.82
2023-01-21T00:43:36.880Z,11.18
2023-01-21T00:46:04.692Z,7.22
2023-01-21T00:48:32.582Z,8.02
2023-01-21T00:51:01.087Z,8.90
2023-01-21T00:53:33.620Z,10.90
2023-01-21T00:56:02.346Z,14.15
2023-01-21T00:58:30.637Z,12.55
2023-01-21T01:01:05.730Z,9.50
2023-01-21T01:03:33.284Z,9.75
2023-01-21T01:06:11.777Z,8.85
2023-01-21T01:08:39.268Z,10.98
2023-01-21T01:11:06.834Z,7.35
2023-01-21T01:13:35.422Z,12.38
2023-01-21T01:16:03.023Z,8.18
2023-01-21T01:18:32.665Z,6.18
2023-01-21T01:21:00.265Z,11.65
2023-01-21T01:23:27.713Z,6.05
2023-01-21T01:25:56.876Z,9.95
2023-01-21T01:28:24.056Z,9.57
2023-01-21T01:30:51.552Z,7.82
2023-01-21T01:33:19.437Z,7.57
2023-01-21T01:35:47.717Z,8.10
2023-01-21T01:38:22.518Z,6.80
2023-01-21T01:40:52.680Z,8.13
2023-01-21T01:43:25.599Z,10.60
2023-01-21T01:45:53.834Z,6.85
2023-01-21T01:48:28.347Z,7.72
2023-01-21T01:51:03.682Z,10.27
2023-01-21T01:53:31.872Z,5.70
2023-01-21T01:55:59.946Z,8.95
2023-01-21T01:58:28.647Z,8.02
2023-01-21T02:00:56.026Z,7.35
2023-01-21T02:03:42.802Z,8.43
2023-01-21T02:06:10.185Z,7.15
2023-01-21T02:08:37.474Z,7.68
2023-01-21T02:11:15.706Z,9.57
2023-01-21T02:13:46.783Z,10.70
2023-01-21T02:16:35.146Z,13.40
2023-01-21T02:19:27.033Z,8.63
2023-01-21T02:22:17.388Z,8.65
2023-01-21T02:25:55.140Z,7.95
2023-01-21T02:28:52.523Z,11.15
2023-01-21T02:31:35.904Z,8.18
2023-01-21T02:34:08.851Z,8.13
2023-01-21T02:36:43.587Z,10.05
2023-01-21T02:39:21.999Z,9.90
2023-01-21T02:42:06.246Z,8.45
2023-01-21T02:44:39.546Z,8.82
2023-01-21T02:47:26.095Z,10.23
2023-01-21T02:50:02.941Z,10.27
2023-01-21T02:52:30.280Z,8.27
2023-01-21T02:54:59.788Z,9.05
2023-01-21T02:57:45.191Z,8.50
2023-01-21T03:00:25.500Z,7.93
2023-01-21T03:03:14.028Z,7.45
2023-01-21T03:05:49.687Z,9.35
2023-01-21T03:08:22.138Z,9.32
2023-01-21T03:10:58.301Z,5.97
2023-01-21T03:13:57.240Z,8.60
2023-01-21T03:16:47.830Z,5.28
2023-01-21T03:19:16.989Z,7.30
2023-01-21T03:21:46.268Z,9.98
2023-01-21T03:24:14.911Z,8.27
2023-01-21T03:26:50.677Z,7.32
2023-01-21T03:29:24.200Z,6.75
2023-01-21T03:31:57.152Z,5.40
2023-01-21T03:34:27.245Z,10.05
2023-01-21T03:37:01.536Z,9.43
2023-01-21T03:39:50.684Z,7.57
2023-01-21T03:42:18.201Z,10.88
2023-01-21T03:44:46.426Z,5.05
2023-01-21T03:47:41.437Z,7.57
2023-01-21T03:50:16.041Z,6.47
2023-01-21T03:52:44.964Z,7.90
2023-01-21T03:55:13.727Z,7.55
2023-01-21T03:57:40.949Z,10.43
2023-01-21T04:00:08.699Z,10.65
2023-01-21T04:02:35.839Z,7.15
2023-01-21T04:05:03.421Z,5.00
2023-01-21T04:07:30.675Z,7.88
2023-01-21T04:09:57.811Z,7.57
2023-01-21T04:12:25.063Z,6.78
2023-01-21T04:14:52.237Z,11.70
2023-01-21T04:17:19.336Z,6.90
2023-01-21T04:19:46.475Z,9.73
2023-01-21T04:22:13.766Z,7.97
2023-01-21T04:24:40.948Z,10.48
2023-01-21T04:27:09.200Z,10.15
2023-01-21T04:29:36.339Z,5.70
2023-01-21T04:32:04.237Z,9.30
2023-01-21T04:34:31.320Z,8.18
2023-01-21T04:36:58.410Z,8.80
2023-01-21T04:39:25.524Z,9.20
2023-01-21T04:41:52.678Z,8.80
2023-01-21T04:44:19.770Z,6.35
2023-01-21T04:46:46.915Z,9.88
2023-01-21T04:49:14.045Z,8.20
2023-01-21T04:51:41.318Z,9.32
2023-01-21T04:54:10.414Z,6.15
2023-01-21T04:56:37.776Z,10.50
2023-01-21T04:59:05.062Z,6.43
2023-01-21T05:01:32.240Z,7.72
2023-01-21T05:03:59.415Z,6.57
2023-01-21T05:06:26.563Z,7.78
2023-01-21T05:08:53.695Z,9.00
2023-01-21T05:11:21.458Z,5.60
2023-01-21T05:13:48.594Z,9.98
2023-01-21T05:16:15.772Z,8.70
2023-01-21T05:18:44.540Z,9.40
2023-01-21T05:21:13.685Z,8.60
2023-01-21T05:23:40.918Z,12.23
2023-01-21T05:26:08.094Z,8.40
2023-01-21T05:28:35.290Z,8.05
2023-01-21T05:31:04.121Z,11.68
2023-01-21T05:33:35.303Z,7.25
2023-01-21T05:36:04.090Z,13.77
2023-01-21T05:38:31.614Z,7.03
2023-01-21T05:41:00.252Z,11.43
2023-01-21T05:43:27.652Z,11.20
2023-01-21T05:45:55.449Z,6.93
2023-01-21T05:48:23.213Z,8.20
2023-01-21T05:50:50.634Z,7.45
2023-01-21T05:53:18.257Z,5.85
2023-01-21T05:55:45.381Z,8.57
2023-01-21T05:58:12.595Z,14.63
2023-01-21T06:00:41.954Z,9.70
2023-01-21T06:03:09.239Z,13.35
2023-01-21T06:05:37.165Z,10.18
2023-01-21T06:08:04.474Z,6.68
2023-01-21T06:10:31.613Z,10.10
2023-01-21T06:12:58.810Z,8.40
2023-01-21T06:15:26.069Z,9.00
2023-01-21T06:17:53.651Z,10.40
2023-01-21T06:20:21.201Z,13.80
2023-01-21T06:22:48.899Z,8.65
2023-01-21T06:25:16.304Z,12.68
2023-01-21T06:27:43.622Z,7.35
2023-01-21T06:30:11.344Z,7.38
2023-01-21T06:32:38.729Z,12.18
2023-01-21T06:35:06.219Z,11.45
2023-01-21T06:37:33.567Z,9.63
2023-01-21T06:40:00.791Z,10.23
2023-01-21T06:42:27.914Z,7.10
2023-01-21T06:44:55.053Z,9.25
2023-01-21T06:47:22.282Z,10.82
2023-01-21T06:49:49.454Z,10.30
2023-01-21T06:52:16.646Z,9.82
2023-01-21T06:54:43.938Z,11.68
2023-01-21T06:57:11.421Z,8.80
2023-01-21T06:59:38.582Z,8.77
2023-01-21T07:02:06.034Z,10.40
2023-01-21T07:04:33.446Z,11.02
2023-01-21T07:07:00.677Z,11.07
2023-01-21T07:09:27.881Z,8.52
2023-01-21T07:11:55.586Z,11.23
2023-01-21T07:14:22.719Z,13.38
2023-01-21T07:16:49.874Z,8.27
2023-01-21T07:19:17.161Z,13.70
2023-01-21T07:21:44.343Z,11.75
2023-01-21T07:24:11.532Z,11.55
2023-01-21T07:26:39.017Z,14.55
2023-01-21T07:29:06.830Z,13.73
2023-01-21T07:31:34.591Z,13.80
2023-01-21T07:34:02.226Z,12.27
2023-01-21T07:36:29.600Z,10.40
2023-01-21T07:38:56.740Z,12.43
2023-01-21T07:41:24.240Z,12.73
2023-01-21T07:43:51.629Z,14.57
2023-01-21T07:46:23.151Z,8.73
2023-01-21T07:48:51.935Z,14.70
2023-01-21T07:51:19.856Z,11.52
2023-01-21T07:53:47.201Z,11.38
2023-01-21T07:56:15.000Z,12.65
2023-01-21T07:58:42.351Z,9.73
2023-01-21T08:01:10.329Z,12.43
2023-01-21T08:03:37.950Z,12.68
2023-01-21T08:06:06.302Z,11.57
2023-01-21T08:08:33.880Z,9.25
2023-01-21T08:11:01.078Z,11.70
2023-01-21T08:13:28.265Z,12.48
2023-01-21T08:15:57.692Z,12.60
2023-01-21T08:18:25.112Z,11.60
2023-01-21T08:20:57.030Z,8.82
2023-01-21T08:23:25.143Z,15.88
2023-01-21T08:25:52.870Z,13.38
2023-01-21T08:28:20.153Z,13.80
2023-01-21T08:30:47.410Z,12.75
2023-01-21T08:33:14.856Z,14.27
2023-01-21T08:35:42.180Z,13.27
2023-01-21T08:38:09.553Z,11.05
2023-01-21T08:40:36.797Z,11.10
2023-01-21T08:43:06.055Z,17.13
2023-01-21T08:45:33.234Z,17.08
2023-01-21T08:48:03.803Z,11.50
2023-01-21T08:50:31.003Z,18.65
2023-01-21T08:52:58.130Z,16.80
2023-01-21T08:55:27.112Z,12.07
2023-01-21T08:57:56.019Z,17.52
2023-01-21T09:00:24.854Z,16.83
2023-01-21T09:02:52.119Z,19.35
2023-01-21T09:05:19.916Z,16.08
2023-01-21T09:07:47.404Z,18.27
2023-01-21T09:10:37.981Z,16.90
2023-01-21T09:13:06.577Z,15.20
2023-01-21T09:15:41.700Z,17.67
2023-01-21T09:18:09.382Z,14.80
2023-01-21T09:20:48.867Z,19.08
2023-01-21T09:23:25.914Z,13.50
2023-01-21T09:25:55.935Z,17.50
2023-01-21T09:28:23.790Z,19.17
2023-01-21T09:30:59.205Z,18.85
2023-01-21T09:33:27.910Z,15.63
2023-01-21T09:36:00.710Z,18.75
2023-01-21T09:38:28.837Z,15.95
2023-01-21T09:41:01.034Z,21.48
2023-01-21T09:43:35.504Z,17.42
2023-01-21T09:46:07.288Z,21.92
2023-01-21T09:48:42.275Z,20.10
2023-01-21T09:51:29.161Z,21.95
2023-01-21T09:53:58.574Z,19.58
2023-01-21T09:56:34.563Z,18.38
2023-01-21T09:59:09.017Z,15.30
2023-01-21T10:01:41.078Z,19.00
2023-01-21T10:07:17.386Z,17.05
2023-01-21T10:10:03.015Z,15.93
2023-01-21T10:13:03.941Z,18.30
2023-01-21T10:16:13.355Z,18.15
2023-01-21T10:18:44.036Z,18.27
2023-01-21T10:21:18.953Z,22.90
2023-01-21T10:23:54.252Z,18.20
2023-01-21T10:26:21.924Z,20.13
2023-01-21T10:28:51.982Z,20.52
2023-01-21T10:31:26.384Z,20.88
2023-01-21T10:33:53.911Z,17.45
2023-01-21T10:36:39.456Z,21.13
2023-01-21T10:39:27.847Z,22.38
2023-01-21T10:42:13.451Z,26.77
2023-01-21T10:45:01.655Z,21.77
2023-01-21T10:47:37.692Z,20.80
2023-01-21T10:50:34.232Z,23.70
2023-01-21T10:53:41.405Z,21.05
2023-01-21T10:56:17.755Z,24.65
2023-01-21T10:59:00.739Z,21.23
2023-01-21T11:01:29.550Z,29.48
2023-01-21T11:04:00.486Z,25.05
2023-01-21T11:06:30.933Z,21.13
2023-01-21T11:09:03.040Z,18.13
2023-01-21T11:14:03.009Z,15.25
2023-01-21T11:16:46.068Z,15.68
2023-01-21T11:19:29.163Z,15.10
2023-01-21T11:22:18.068Z,15.90
2023-01-21T11:24:49.988Z,18.30
2023-01-21T11:27:22.832Z,15.05
2023-01-21T11:29:50.667Z,15.60
2023-01-21T11:32:21.964Z,17.30
2023-01-21T11:34:52.146Z,19.20
2023-01-21T11:37:26.323Z,19.40
2023-01-21T11:40:03.676Z,19.38
2023-01-21T11:42:30.951Z,22.98
2023-01-21T11:45:30.110Z,22.85
2023-01-21T11:47:58.957Z,20.33
2023-01-21T11:50:34.728Z,20.88
2023-01-21T11:53:09.100Z,20.10
2023-01-21T11:55:46.874Z,19.50
2023-01-21T11:58:25.098Z,21.00
2023-01-21T12:00:55.977Z,21.10
2023-01-21T12:03:49.453Z,19.15
2023-01-21T12:06:26.562Z,20.25
2023-01-21T12:08:57.651Z,21.63
2023-01-21T12:11:27.892Z,20.77
2023-01-21T12:13:58.466Z,17.27
2023-01-21T12:16:53.595Z,20.08
2023-01-21T12:19:46.229Z,20.90
2023-01-21T12:23:10.261Z,18.33
2023-01-21T12:25:47.017Z,18.33
2023-01-21T12:28:44.375Z,21.00
2023-01-21T12:31:26.140Z,22.42
2023-01-21T12:33:55.757Z,19.58
2023-01-21T12:36:31.285Z,18.67
2023-01-21T12:39:07.168Z,17.65
2023-01-21T12:41:35.973Z,17.67
2023-01-21T12:44:28.529Z,17.58
2023-01-21T12:49:56.968Z,16.88
2023-01-21T12:52:30.669Z,18.45
2023-01-21T12:55:13.880Z,17.92
2023-01-21T12:58:05.766Z,18.15
2023-01-21T13:00:37.617Z,15.55
2023-01-21T13:03:11.000Z,12.93
2023-01-21T13:05:46.566Z,13.23
2023-01-21T13:08:47.584Z,11.27
2023-01-21T13:11:20.013Z,16.48
2023-01-21T13:14:08.906Z,13.00
2023-01-21T13:16:44.234Z,13.85
2023-01-21T13:19:14.455Z,17.48
2023-01-21T13:21:56.536Z,14.73
2023-01-21T13:24:35.304Z,14.05
2023-01-21T13:27:15.863Z,13.30
2023-01-21T13:29:42.956Z,12.65
2023-01-21T13:32:36.327Z,15.15
2023-01-21T13:35:32.240Z,11.75
2023-01-21T13:38:15.474Z,11.38
2023-01-21T13:41:01.540Z,12.13
2023-01-21T13:43:28.752Z,16.05
2023-01-21T13:46:04.754Z,10.40
2023-01-21T13:48:51.843Z,13.15
2023-01-21T13:51:30.701Z,11.32
2023-01-21T13:54:25.191Z,14.77
2023-01-21T13:57:08.135Z,8.85
2023-01-21T13:59:45.155Z,10.65
2023-01-21T14:02:48.090Z,10.25
2023-01-21T14:05:56.969Z,11.30
2023-01-21T14:08:24.360Z,11.18
2023-01-21T14:11:00.941Z,10.68
2023-01-21T14:14:04.264Z,13.77
2023-01-21T14:16:42.208Z,15.20
2023-01-21T14:19:22.650Z,11.55
2023-01-21T14:22:04.950Z,11.27
2023-01-21T14:27:23.847Z,10.85
2023-01-21T14:29:55.727Z,13.87
2023-01-21T14:32:29.822Z,13.02
2023-01-21T14:35:21.333Z,10.80
2023-01-21T14:37:56.424Z,13.40
2023-01-21T14:40:30.355Z,11.02
2023-01-21T14:42:59.525Z,9.52
2023-01-21T14:45:53.101Z,11.18
2023-01-21T14:48:47.069Z,9.07
2023-01-21T14:51:21.175Z,7.78
2023-01-21T14:54:12.488Z,12.27
2023-01-21T14:56:39.865Z,9.77
2023-01-21T14:59:41.687Z,13.82
2023-01-21T15:02:30.615Z,12.10
2023-01-21T15:05:01.801Z,12.35
2023-01-21T15:07:35.418Z,11.80
2023-01-21T15:10:14.033Z,9.93
2023-01-21T15:12:52.274Z,8.65
2023-01-21T15:15:31.261Z,8.35
2023-01-21T15:18:11.062Z,8.25
2023-01-21T15:20:39.681Z,9.55
2023-01-21T15:23:19.412Z,11.80
2023-01-21T15:26:34.229Z,9.15
2023-01-21T15:29:34.462Z,12.05
2023-01-21T15:32:35.460Z,8.57
2023-01-21T15:35:22.821Z,11.30
2023-01-21T15:37:59.192Z,11.15
2023-01-21T15:40:28.969Z,7.95
2023-01-21T15:42:58.985Z,14.65
2023-01-21T15:46:03.602Z,9.00
2023-01-21T15:48:58.750Z,10.00
2023-01-21T15:51:37.973Z,12.57
2023-01-21T15:54:24.425Z,12.25
2023-01-21T15:57:19.090Z,10.02
2023-01-21T16:00:09.750Z,11.52
2023-01-21T16:03:05.581Z,10.60
2023-01-21T16:06:02.885Z,8.05
2023-01-21T16:08:46.809Z,9.90
2023-01-21T16:11:50.971Z,10.45
2023-01-21T16:14:49.059Z,13.35
2023-01-21T16:18:12.700Z,11.77
2023-01-21T16:20:46.411Z,8.95
2023-01-21T16:23:15.844Z,12.25
2023-01-21T16:26:05.190Z,7.88
2023-01-21T16:29:11.303Z,12.10
2023-01-21T16:31:59.505Z,7.80
2023-01-21T16:34:43.398Z,8.38
2023-01-21T16:37:19.949Z,6.75
2023-01-21T16:39:47.456Z,8.27
2023-01-21T16:42:38.140Z,7.15
2023-01-21T16:45:19.973Z,9.07
2023-01-21T16:47:57.055Z,10.48
2023-01-21T16:50:27.306Z,9.20
2023-01-21T16:52:56.657Z,8.20
2023-01-21T16:55:29.375Z,10.98
2023-01-21T16:57:58.959Z,12.07
2023-01-21T17:00:29.454Z,6.70
2023-01-21T17:02:57.756Z,8.45
2023-01-21T17:05:30.426Z,7.80
2023-01-21T17:08:00.993Z,8.38
2023-01-21T17:10:40.084Z,9.80
2023-01-21T17:13:16.131Z,9.88
2023-01-21T17:16:07.432Z,10.57
2023-01-21T17:18:39.229Z,11.23
2023-01-21T17:21:19.980Z,11.20
2023-01-21T17:23:55.646Z,12.35
2023-01-21T17:26:29.304Z,17.33
2023-01-21T17:29:03.278Z,12.25
2023-01-21T17:31:42.627Z,12.95
2023-01-21T17:34:17.407Z,9.55
2023-01-21T17:36:51.793Z,12.30
2023-01-21T17:39:54.777Z,9.07
2023-01-21T17:42:24.283Z,12.00
2023-01-21T17:45:04.861Z,10.77
2023-01-21T17:47:59.052Z,11.30
2023-01-21T17:50:33.955Z,17.27
2023-01-21T17:53:07.411Z,11.20
2023-01-21T17:55:40.377Z,12.27
2023-01-21T17:58:32.345Z,17.55
2023-01-21T18:01:11.037Z,14.82
2023-01-21T18:03:38.766Z,21.70
2023-01-21T18:06:17.898Z,16.70
2023-01-21T18:08:45.605Z,18.25
2023-01-21T18:11:16.064Z,19.13
2023-01-21T18:13:43.414Z,15.88
2023-01-21T18:16:11.112Z,14.57
2023-01-21T18:18:39.593Z,16.58
2023-01-21T18:21:07.158Z,15.73
2023-01-21T18:23:34.522Z,18.55
2023-01-21T18:26:01.805Z,18.02
2023-01-21T18:28:31.644Z,25.63
2023-01-21T18:30:59.715Z,15.48
2023-01-21T18:33:28.732Z,22.13
2023-01-21T18:35:55.940Z,16.90
2023-01-21T18:38:33.648Z,17.08
2023-01-21T18:41:20.687Z,21.55
2023-01-21T18:43:58.083Z,17.15
2023-01-21T18:46:39.785Z,17.33
2023-01-21T18:49:36.792Z,15.88
2023-01-21T18:52:09.969Z,22.80
2023-01-21T18:54:37.403Z,21.33
2023-01-21T18:57:35.000Z,16.92
2023-01-21T19:00:04.956Z,22.50
2023-01-21T19:02:32.415Z,22.92
2023-01-21T19:04:59.653Z,17.10
2023-01-21T19:07:28.208Z,22.67
2023-01-21T19:09:55.372Z,17.67
2023-01-21T19:12:24.333Z,20.42
2023-01-21T19:14:51.817Z,22.35
2023-01-21T19:17:30.515Z,24.77
2023-01-21T19:19:57.753Z,25.00
2023-01-21T19:22:25.235Z,20.60
2023-01-21T19:24:52.463Z,32.58
2023-01-21T19:27:31.783Z,24.48
2023-01-21T19:29:59.080Z,31.70
2023-01-21T19:32:26.323Z,26.02
2023-01-21T19:34:54.578Z,23.73
2023-01-21T19:37:24.496Z,26.25
2023-01-21T19:39:51.868Z,21.42
2023-01-21T19:42:27.939Z,21.50
2023-01-21T19:44:55.327Z,33.28
2023-01-21T19:47:28.497Z,34.72
2023-01-21T19:49:56.403Z,30.92
2023-01-21T19:52:33.596Z,32.03
2023-01-21T19:55:05.608Z,28.10
2023-01-21T20:00:23.917Z,25.13
2023-01-21T20:02:51.068Z,22.92
2023-01-21T20:05:18.859Z,20.42
2023-01-21T20:07:47.548Z,22.00
2023-01-21T20:10:20.505Z,22.90
2023-01-21T20:12:48.870Z,27.95
2023-01-21T20:15:19.503Z,27.65
2023-01-21T20:17:50.336Z,26.92
2023-01-21T20:20:23.765Z,23.90
2023-01-21T20:22:51.089Z,23.85
2023-01-21T20:25:24.112Z,33.95
2023-01-21T20:27:58.798Z,24.77
2023-01-21T20:30:29.582Z,24.15
2023-01-21T20:32:57.945Z,34.20
2023-01-21T20:35:33.479Z,24.70
2023-01-21T20:38:01.167Z,25.95
2023-01-21T20:40:30.390Z,27.95
2023-01-21T20:43:45.697Z,26.55
2023-01-21T20:46:25.361Z,28.50
2023-01-21T20:49:01.623Z,28.83
2023-01-21T20:51:30.150Z,26.20
2023-01-21T20:53:57.640Z,26.73
2023-01-21T20:56:28.755Z,24.58
2023-01-21T20:58:56.226Z,32.07
2023-01-21T21:01:25.949Z,28.90
2023-01-21T21:03:53.545Z,25.75
2023-01-21T21:06:24.385Z,21.48
2023-01-21T21:08:52.788Z,24.63
2023-01-21T21:11:20.392Z,26.33
2023-01-21T21:13:51.949Z,23.52
2023-01-21T21:16:22.349Z,32.83
2023-01-21T21:18:50.431Z,27.05
2023-01-21T21:21:21.730Z,24.23
2023-01-21T21:23:54.155Z,25.25
2023-01-21T21:26:27.087Z,30.05
2023-01-21T21:28:55.377Z,24.35
2023-01-21T21:31:23.703Z,27.08
2023-01-21T21:33:56.807Z,26.80
2023-01-21T21:36:25.070Z,23.80
2023-01-21T21:38:56.040Z,25.83
2023-01-21T21:41:44.654Z,22.42
2023-01-21T21:44:12.769Z,29.13
2023-01-21T21:46:59.549Z,20.50
2023-01-21T21:49:28.137Z,22.77
2023-01-21T21:51:55.520Z,20.13
2023-01-21T21:54:23.787Z,24.67
2023-01-21T21:56:51.136Z,23.10
2023-01-21T21:59:18.445Z,19.73
2023-01-21T22:01:45.841Z,22.48
2023-01-21T22:04:13.239Z,22.70
2023-01-21T22:06:40.693Z,26.60
2023-01-21T22:09:08.352Z,24.77
2023-01-21T22:11:59.409Z,24.98
2023-01-21T22:14:39.621Z,23.88
2023-01-21T22:17:10.940Z,26.00
2023-01-21T22:19:38.341Z,22.83
2023-01-21T22:22:05.934Z,19.73
2023-01-21T22:24:33.183Z,29.13
2023-01-21T22:27:00.577Z,23.80
2023-01-21T22:29:29.610Z,23.20
2023-01-21T22:31:56.795Z,24.83
2023-01-21T22:34:24.056Z,21.90
2023-01-21T22:36:52.585Z,20.70
2023-01-21T22:39:27.725Z,24.65
2023-01-21T22:42:03.346Z,20.40
2023-01-21T22:44:47.008Z,20.67
2023-01-21T22:47:14.328Z,23.50
2023-01-21T22:49:42.606Z,24.38
2023-01-21T22:52:09.781Z,20.98
2023-01-21T22:54:36.888Z,27.33
2023-01-21T22:57:04.308Z,23.35
2023-01-21T22:59:33.590Z,25.33
2023-01-21T23:02:01.023Z,24.33
2023-01-21T23:04:28.262Z,22.80
2023-01-21T23:06:55.957Z,26.02
2023-01-21T23:09:23.281Z,22.13
2023-01-21T23:11:53.873Z,22.10
2023-01-21T23:14:21.133Z,24.23
2023-01-21T23:16:48.602Z,25.27
2023-01-21T23:19:15.775Z,27.90
2023-01-21T23:21:43.023Z,24.25
2023-01-21T23:24:10.581Z,21.70
2023-01-21T23:26:38.182Z,19.42
2023-01-21T23:29:05.514Z,22.95
2023-01-21T23:31:32.903Z,18.52
2023-01-21T23:34:00.165Z,22.95
2023-01-21T23:36:27.899Z,19.50
2023-01-21T23:38:55.424Z,20.33
2023-01-21T23:41:22.675Z,22.58
2023-01-21T23:43:50.082Z,26.77
2023-01-21T23:46:19.937Z,20.25
2023-01-21T23:48:47.504Z,24.02
2023-01-21T23:51:15.900Z,22.35
2023-01-21T23:53:43.559Z,20.58
2023-01-21T23:56:15.846Z,20.65
2023-01-21T23:58:43.120Z,20.27
